URMMURKK

Guest
Details From URMM - MINERALNYYE VODY
To URKK - PASHKOVSKIY
Flight Number -
Tags generated
Created
Modified
Stats Distance 181 nm / 335 km
Max Altitude 18,100 ft / 5,517 m
Waypoints 3
Social Downloads 7
Likes 0
Share VATSIM

Download

Looking for another format? Having issues loading an existing format? Contact us
Advertisement - Login to hide

Notes

Basic altitude profile: - Ascent Rate: 2500ft/min - Ascent Speed: 250kts - Cruise Altitude: 35000ft - Cruise Speed: 420kts - Descent Rate: 1500ft/min - Descent Speed: 250kts Options: - Use NATs: yes - Use PACOTS: yes - Use low airways: yes - Use high airways: yes

Route

URMM ATREL URKK

ID Type Via Altitude Latitude Longitude Leg Dist Tot Dist Heading (true) Name
O URMM APT - 0 ft / 0 m 44.22507˚ 43.08189˚ - 0 nm - MINERALNYYE VODY
ATREL FIX - 18,100 ft / 5,517 m 44.25306˚ 40.94528˚ 91 nm 91 nm 272° / 270° -
O URKK APT - 0 ft / 0 m 45.03464˚ 39.17045˚ 89 nm 181 nm 302° / 301° PASHKOVSKIY

Altitude Profile

Advertisement - Login to hide

Weather


0- 5 10 15 20 25 30 35+ Temperature / ° C

Clouds and Precipitation
Forecast for 2017-12-12 12:00 UTC. Updated an hour ago

Ground ~20,000 ft ~40,000 ft Winds

URMM

Details ICAO URMM (MRV)
Name MINERALNYYE VODY
Region Russia
Timezone Europe/Moscow (UTC+3.0)
Stats Elevation 1,054 ft / 321 m (AMSL)
Location 44.225073° 43.081891°
Runways 1
Magnetic Variation 7.387° E

METAR

URMM 121200Z 10003MPS 9999 NSC 08/02 Q1025 R12/090070 NOSIG RMK QFE741/0988

Decode

TAF

TAF URMM 121058Z 1212/1312 10003G08MPS 9999 SCT030 TX09/1312Z TNM01/1303Z TEMPO 1218/1308 3100 BR BKN011

Decode

Departure Runways

ID Width Length Bearing (true) Bearing (mag) Surface Threshold Offset Overrun Length
12 197 ft / 60 m 12,766 ft / 3,891 m 122.28° 114.89° Concrete 0 ft / 0 m 240 ft / 73 m
30 197 ft / 60 m 12,766 ft / 3,891 m 302.31° 294.92° Concrete 0 ft / 0 m 250 ft / 76 m

URKK

Details ICAO URKK (KRR)
Name PASHKOVSKIY
Region Russia
Timezone Europe/Moscow (UTC+3.0)
Stats Elevation 118 ft / 36 m (AMSL)
Location 45.034644° 39.170454°
Runways 2
Magnetic Variation 7.355° E

METAR

URKK 121200Z 22005MPS CAVOK 14/05 Q1022 R23L/CLRD70 NOSIG RMK QFE763

Decode

TAF

TAF URKK 121055Z 1212/1312 17006G12MPS 9999 SCT020 BECMG 1215/1217 15003G08MPS

Decode

Destination Runways

ID Width Length Bearing (true) Bearing (mag) Surface Threshold Offset Overrun Length
05L 160 ft / 49 m 7,177 ft / 2,187 m 52.37° 45.02° Asphalt 0 ft / 0 m 160 ft / 49 m
05R 145 ft / 44 m 9,822 ft / 2,994 m 52.45° 45.10° Concrete 0 ft / 0 m 160 ft / 49 m
23L 145 ft / 44 m 9,822 ft / 2,994 m 232.47° 225.12° Concrete 0 ft / 0 m 160 ft / 49 m
23R 160 ft / 49 m 7,177 ft / 2,187 m 232.38° 225.03° Asphalt 0 ft / 0 m 160 ft / 49 m

Popular Alternatives